sensor_id;sensor_type;location;lat;lon;timestamp;pressure;altitude;pressure_sealevel;temperature;humidity
77631;BME280;66798;47.370;8.552;2023-04-24T00:00:54;95887.56;;;10.16;75.75
77631;BME280;66798;47.370;8.552;2023-04-24T00:03:22;95889.50;;;10.05;77.14
77631;BME280;66798;47.370;8.552;2023-04-24T00:05:48;95892.19;;;10.00;76.35
77631;BME280;66798;47.370;8.552;2023-04-24T00:08:13;95895.88;;;9.99;77.18
77631;BME280;66798;47.370;8.552;2023-04-24T00:10:39;95894.03;;;9.99;76.78
77631;BME280;66798;47.370;8.552;2023-04-24T00:13:05;95901.16;;;9.99;76.66
77631;BME280;66798;47.370;8.552;2023-04-24T00:15:30;95897.25;;;9.91;76.76
77631;BME280;66798;47.370;8.552;2023-04-24T00:17:56;95887.00;;;9.95;76.05
77631;BME280;66798;47.370;8.552;2023-04-24T00:20:21;95882.53;;;9.95;75.90
77631;BME280;66798;47.370;8.552;2023-04-24T00:22:47;95892.47;;;9.98;74.43
77631;BME280;66798;47.370;8.552;2023-04-24T00:25:13;95890.63;;;9.99;73.69
77631;BME280;66798;47.370;8.552;2023-04-24T00:27:38;95889.34;;;9.96;74.54
77631;BME280;66798;47.370;8.552;2023-04-24T00:30:04;95883.66;;;9.89;74.77
77631;BME280;66798;47.370;8.552;2023-04-24T00:32:30;95886.31;;;9.84;74.06
77631;BME280;66798;47.370;8.552;2023-04-24T00:34:55;95888.47;;;9.82;74.34
77631;BME280;66798;47.370;8.552;2023-04-24T00:37:21;95885.31;;;9.80;74.46
77631;BME280;66798;47.370;8.552;2023-04-24T00:39:46;95875.34;;;9.77;73.77
77631;BME280;66798;47.370;8.552;2023-04-24T00:42:12;95884.56;;;9.74;74.39
77631;BME280;66798;47.370;8.552;2023-04-24T00:44:37;95887.75;;;9.71;74.24
77631;BME280;66798;47.370;8.552;2023-04-24T00:47:03;95885.38;;;9.75;73.33
77631;BME280;66798;47.370;8.552;2023-04-24T00:49:29;95885.84;;;9.77;73.60
77631;BME280;66798;47.370;8.552;2023-04-24T00:51:54;95879.84;;;9.76;72.99
77631;BME280;66798;47.370;8.552;2023-04-24T00:54:20;95888.53;;;9.72;73.36
77631;BME280;66798;47.370;8.552;2023-04-24T00:56:45;95886.69;;;9.72;72.32
77631;BME280;66798;47.370;8.552;2023-04-24T00:59:16;95890.91;;;9.73;73.09
77631;BME280;66798;47.370;8.552;2023-04-24T01:01:43;95881.75;;;9.71;73.46
77631;BME280;66798;47.370;8.552;2023-04-24T01:04:11;95886.75;;;9.67;72.54
77631;BME280;66798;47.370;8.552;2023-04-24T01:06:39;95885.97;;;9.67;72.74
77631;BME280;66798;47.370;8.552;2023-04-24T01:09:05;95879.69;;;9.63;72.60
77631;BME280;66798;47.370;8.552;2023-04-24T01:11:31;95880.78;;;9.62;73.60
77631;BME280;66798;47.370;8.552;2023-04-24T01:13:57;95890.75;;;9.60;73.07
77631;BME280;66798;47.370;8.552;2023-04-24T01:16:22;95891.03;;;9.58;73.88
77631;BME280;66798;47.370;8.552;2023-04-24T01:18:48;95878.25;;;9.51;72.96
77631;BME280;66798;47.370;8.552;2023-04-24T01:21:15;95888.50;;;9.48;74.53
77631;BME280;66798;47.370;8.552;2023-04-24T01:23:44;95886.66;;;9.48;74.71
77631;BME280;66798;47.370;8.552;2023-04-24T01:26:10;95888.81;;;9.41;74.49
77631;BME280;66798;47.370;8.552;2023-04-24T01:28:36;95889.06;;;9.45;74.57
77631;BME280;66798;47.370;8.552;2023-04-24T01:31:02;95896.94;;;9.45;75.21
77631;BME280;66798;47.370;8.552;2023-04-24T01:33:28;95893.53;;;9.44;74.82
77631;BME280;66798;47.370;8.552;2023-04-24T01:35:54;95900.59;;;9.49;73.51
77631;BME280;66798;47.370;8.552;2023-04-24T01:38:19;95900.13;;;9.42;74.95
77631;BME280;66798;47.370;8.552;2023-04-24T01:40:45;95898.59;;;9.35;75.83
77631;BME280;66798;47.370;8.552;2023-04-24T01:43:11;95898.84;;;9.34;74.87
77631;BME280;66798;47.370;8.552;2023-04-24T01:45:37;95889.47;;;9.28;75.28
77631;BME280;66798;47.370;8.552;2023-04-24T01:48:02;95904.16;;;9.29;74.83
77631;BME280;66798;47.370;8.552;2023-04-24T01:50:28;95904.66;;;9.31;73.78
77631;BME280;66798;47.370;8.552;2023-04-24T01:52:53;95902.28;;;9.34;74.08
77631;BME280;66798;47.370;8.552;2023-04-24T01:55:19;95892.28;;;9.36;73.69
77631;BME280;66798;47.370;8.552;2023-04-24T01:57:44;95904.66;;;9.31;74.15
77631;BME280;66798;47.370;8.552;2023-04-24T02:00:10;95893.03;;;9.42;72.01
77631;BME280;66798;47.370;8.552;2023-04-24T02:02:37;95905.09;;;9.43;73.06
77631;BME280;66798;47.370;8.552;2023-04-24T02:05:03;95897.25;;;9.38;72.54
77631;BME280;66798;47.370;8.552;2023-04-24T02:07:30;95902.97;;;9.45;71.05
77631;BME280;66798;47.370;8.552;2023-04-24T02:09:56;95898.50;;;9.46;71.73
77631;BME280;66798;47.370;8.552;2023-04-24T02:12:21;95887.72;;;9.47;71.01
77631;BME280;66798;47.370;8.552;2023-04-24T02:14:47;95902.97;;;9.45;71.94
77631;BME280;66798;47.370;8.552;2023-04-24T02:17:12;95896.94;;;9.45;71.94
77631;BME280;66798;47.370;8.552;2023-04-24T02:19:40;95896.69;;;9.46;71.71
77631;BME280;66798;47.370;8.552;2023-04-24T02:22:06;95891.91;;;9.48;71.40
77631;BME280;66798;47.370;8.552;2023-04-24T02:24:31;95901.13;;;9.46;71.64
77631;BME280;66798;47.370;8.552;2023-04-24T02:26:56;95888.81;;;9.46;72.19
77631;BME280;66798;47.370;8.552;2023-04-24T02:29:23;95894.06;;;9.41;73.48
77631;BME280;66798;47.370;8.552;2023-04-24T02:31:48;95894.22;;;9.26;75.33
77631;BME280;66798;47.370;8.552;2023-04-24T02:34:14;95900.28;;;9.21;74.67
77631;BME280;66798;47.370;8.552;2023-04-24T02:36:39;95897.41;;;9.23;74.40
77631;BME280;66798;47.370;8.552;2023-04-24T02:39:05;95891.13;;;9.19;73.87
77631;BME280;66798;47.370;8.552;2023-04-24T02:41:30;95885.31;;;9.22;73.55
77631;BME280;66798;47.370;8.552;2023-04-24T02:43:58;95898.19;;;9.23;72.93
77631;BME280;66798;47.370;8.552;2023-04-24T02:46:24;95892.09;;;9.28;72.46
77631;BME280;66798;47.370;8.552;2023-04-24T02:48:49;95877.66;;;9.30;71.98
77631;BME280;66798;47.370;8.552;2023-04-24T02:51:15;95897.03;;;9.34;72.10
77631;BME280;66798;47.370;8.552;2023-04-24T02:53:40;95889.91;;;9.40;71.59
77631;BME280;66798;47.370;8.552;2023-04-24T02:56:05;95891.97;;;9.43;71.55
77631;BME280;66798;47.370;8.552;2023-04-24T02:58:31;95893.25;;;9.46;70.75
77631;BME280;66798;47.370;8.552;2023-04-24T03:00:56;95878.06;;;9.43;71.38
77631;BME280;66798;47.370;8.552;2023-04-24T03:03:22;95888.28;;;9.44;71.31
77631;BME280;66798;47.370;8.552;2023-04-24T03:05:48;95877.50;;;9.46;71.60
77631;BME280;66798;47.370;8.552;2023-04-24T03:08:13;95888.28;;;9.44;72.14
77631;BME280;66798;47.370;8.552;2023-04-24T03:10:40;95886.44;;;9.45;72.24
77631;BME280;66798;47.370;8.552;2023-04-24T03:13:05;95884.19;;;9.33;74.09
77631;BME280;66798;47.370;8.552;2023-04-24T03:15:31;95887.06;;;9.31;74.09
77631;BME280;66798;47.370;8.552;2023-04-24T03:17:56;95883.59;;;9.07;74.46
77631;BME280;66798;47.370;8.552;2023-04-24T03:20:22;95871.78;;;9.09;74.30
77631;BME280;66798;47.370;8.552;2023-04-24T03:22:47;95869.97;;;9.05;74.62
77631;BME280;66798;47.370;8.552;2023-04-24T03:25:13;95880.69;;;9.13;74.18
77631;BME280;66798;47.370;8.552;2023-04-24T03:27:38;95884.84;;;9.14;74.51
77631;BME280;66798;47.370;8.552;2023-04-24T03:30:08;95880.06;;;9.22;72.89
77631;BME280;66798;47.370;8.552;2023-04-24T03:32:34;95888.22;;;9.20;73.03
77631;BME280;66798;47.370;8.552;2023-04-24T03:34:59;95885.97;;;9.38;71.76
77631;BME280;66798;47.370;8.552;2023-04-24T03:37:25;95877.00;;;9.44;69.39
77631;BME280;66798;47.370;8.552;2023-04-24T03:39:51;95885.94;;;9.43;70.18
77631;BME280;66798;47.370;8.552;2023-04-24T03:42:17;95876.34;;;9.28;71.41
77631;BME280;66798;47.370;8.552;2023-04-24T03:44:42;95869.88;;;9.15;72.17
77631;BME280;66798;47.370;8.552;2023-04-24T03:47:08;95884.28;;;9.23;71.89
77631;BME280;66798;47.370;8.552;2023-04-24T03:49:33;95879.50;;;9.30;70.86
77631;BME280;66798;47.370;8.552;2023-04-24T03:51:58;95880.22;;;9.35;71.77
77631;BME280;66798;47.370;8.552;2023-04-24T03:54:24;95870.03;;;9.29;71.28
77631;BME280;66798;47.370;8.552;2023-04-24T03:56:49;95859.03;;;9.27;71.87
77631;BME280;66798;47.370;8.552;2023-04-24T03:59:15;95879.19;;;9.31;71.42
77631;BME280;66798;47.370;8.552;2023-04-24T04:01:40;95877.91;;;9.29;70.57
77631;BME280;66798;47.370;8.552;2023-04-24T04:04:06;95875.28;;;9.29;71.53
77631;BME280;66798;47.370;8.552;2023-04-24T04:06:33;95881.59;;;9.28;71.10
77631;BME280;66798;47.370;8.552;2023-04-24T04:08:58;95872.13;;;9.32;70.92
77631;BME280;66798;47.370;8.552;2023-04-24T04:11:24;95867.47;;;9.24;70.90
77631;BME280;66798;47.370;8.552;2023-04-24T04:13:50;95882.94;;;9.25;71.19
77631;BME280;66798;47.370;8.552;2023-04-24T04:16:16;95873.50;;;9.24;70.48
77631;BME280;66798;47.370;8.552;2023-04-24T04:18:44;95878.69;;;9.29;70.37
77631;BME280;66798;47.370;8.552;2023-04-24T04:21:10;95883.66;;;9.31;70.35
77631;BME280;66798;47.370;8.552;2023-04-24T04:23:36;95885.47;;;9.35;70.59
77631;BME280;66798;47.370;8.552;2023-04-24T04:26:02;95881.03;;;9.31;70.46
77631;BME280;66798;47.370;8.552;2023-04-24T04:28:29;95885.53;;;9.30;70.65
77631;BME280;66798;47.370;8.552;2023-04-24T04:30:56;95892.88;;;9.28;70.70
77631;BME280;66798;47.370;8.552;2023-04-24T04:33:26;95889.47;;;9.28;70.49
77631;BME280;66798;47.370;8.552;2023-04-24T04:35:52;95909.69;;;9.27;71.51
77631;BME280;66798;47.370;8.552;2023-04-24T04:38:18;95902.03;;;9.31;71.63
77631;BME280;66798;47.370;8.552;2023-04-24T04:40:45;95912.50;;;9.36;71.32
77631;BME280;66798;47.370;8.552;2023-04-24T04:43:10;95908.31;;;9.35;71.57
77631;BME280;66798;47.370;8.552;2023-04-24T04:45:37;95912.59;;;9.26;71.50
77631;BME280;66798;47.370;8.552;2023-04-24T04:48:04;95930.41;;;9.29;72.23
77631;BME280;66798;47.370;8.552;2023-04-24T04:50:29;95933.56;;;9.26;72.17
77631;BME280;66798;47.370;8.552;2023-04-24T04:52:55;95940.84;;;9.34;72.23
77631;BME280;66798;47.370;8.552;2023-04-24T04:55:20;95947.25;;;9.23;73.56
77631;BME280;66798;47.370;8.552;2023-04-24T04:57:46;95953.38;;;9.08;74.63
77631;BME280;66798;47.370;8.552;2023-04-24T05:00:12;95962.88;;;8.99;75.87
77631;BME280;66798;47.370;8.552;2023-04-24T05:02:38;95971.56;;;8.89;77.23
77631;BME280;66798;47.370;8.552;2023-04-24T05:05:05;95969.53;;;8.81;78.20
77631;BME280;66798;47.370;8.552;2023-04-24T05:07:31;95975.63;;;8.71;79.27
77631;BME280;66798;47.370;8.552;2023-04-24T05:09:56;95979.06;;;8.61;79.97
77631;BME280;66798;47.370;8.552;2023-04-24T05:12:22;95988.78;;;8.56;80.93
77631;BME280;66798;47.370;8.552;2023-04-24T05:14:47;95992.19;;;8.56;81.56
77631;BME280;66798;47.370;8.552;2023-04-24T05:17:13;96005.59;;;8.49;82.37
77631;BME280;66798;47.370;8.552;2023-04-24T05:19:38;96002.97;;;8.49;82.07
77631;BME280;66798;47.370;8.552;2023-04-24T05:22:04;96004.56;;;8.40;82.96
77631;BME280;66798;47.370;8.552;2023-04-24T05:24:35;96010.31;;;8.42;82.92
77631;BME280;66798;47.370;8.552;2023-04-24T05:27:02;96011.38;;;8.46;83.37
77631;BME280;66798;47.370;8.552;2023-04-24T05:29:28;96015.53;;;8.47;83.45
77631;BME280;66798;47.370;8.552;2023-04-24T05:31:56;96018.72;;;8.44;83.55
77631;BME280;66798;47.370;8.552;2023-04-24T05:34:21;96023.66;;;8.46;83.73
77631;BME280;66798;47.370;8.552;2023-04-24T05:36:47;96025.50;;;8.45;84.21
77631;BME280;66798;47.370;8.552;2023-04-24T05:39:13;96024.72;;;8.50;84.63
77631;BME280;66798;47.370;8.552;2023-04-24T05:41:39;96026.84;;;8.27;84.23
77631;BME280;66798;47.370;8.552;2023-04-24T05:44:04;96027.88;;;8.37;83.87
77631;BME280;66798;47.370;8.552;2023-04-24T05:46:30;96040.19;;;8.41;84.25
77631;BME280;66798;47.370;8.552;2023-04-24T05:48:55;96035.44;;;8.48;84.80
77631;BME280;66798;47.370;8.552;2023-04-24T05:51:21;96026.78;;;8.58;83.48
77631;BME280;66798;47.370;8.552;2023-04-24T05:53:46;96041.97;;;8.61;82.06
77631;BME280;66798;47.370;8.552;2023-04-24T05:56:12;96045.91;;;8.59;81.54
77631;BME280;66798;47.370;8.552;2023-04-24T05:58:37;96048.53;;;8.59;82.45
77631;BME280;66798;47.370;8.552;2023-04-24T06:01:03;96049.03;;;8.66;81.98
77631;BME280;66798;47.370;8.552;2023-04-24T06:03:28;96052.16;;;8.73;82.86
77631;BME280;66798;47.370;8.552;2023-04-24T06:05:54;96054.22;;;8.81;81.90
77631;BME280;66798;47.370;8.552;2023-04-24T06:08:19;96066.47;;;8.96;82.04
77631;BME280;66798;47.370;8.552;2023-04-24T06:10:45;96059.22;;;8.78;82.81
77631;BME280;66798;47.370;8.552;2023-04-24T06:13:10;96052.56;;;9.01;81.50
77631;BME280;66798;47.370;8.552;2023-04-24T06:15:36;96062.28;;;9.00;82.00
77631;BME280;66798;47.370;8.552;2023-04-24T06:18:02;96058.13;;;8.94;81.54
77631;BME280;66798;47.370;8.552;2023-04-24T06:20:28;96058.56;;;9.11;82.16
77631;BME280;66798;47.370;8.552;2023-04-24T06:22:53;96057.81;;;9.06;80.65
77631;BME280;66798;47.370;8.552;2023-04-24T06:25:19;96052.41;;;9.31;80.65
77631;BME280;66798;47.370;8.552;2023-04-24T06:27:44;96052.38;;;9.42;79.72
77631;BME280;66798;47.370;8.552;2023-04-24T06:30:10;96050.81;;;9.35;79.42
77631;BME280;66798;47.370;8.552;2023-04-24T06:32:36;96055.41;;;9.59;78.28
77631;BME280;66798;47.370;8.552;2023-04-24T06:35:01;96059.03;;;9.97;77.69
77631;BME280;66798;47.370;8.552;2023-04-24T06:37:27;96049.13;;;9.89;78.20
77631;BME280;66798;47.370;8.552;2023-04-24T06:39:52;96048.03;;;10.30;77.09
77631;BME280;66798;47.370;8.552;2023-04-24T06:42:18;96049.09;;;10.53;76.19
77631;BME280;66798;47.370;8.552;2023-04-24T06:44:46;96042.94;;;12.00;72.37
77631;BME280;66798;47.370;8.552;2023-04-24T06:47:11;96045.16;;;11.36;70.90
77631;BME280;66798;47.370;8.552;2023-04-24T06:49:39;96059.91;;;11.56;69.81
77631;BME280;66798;47.370;8.552;2023-04-24T06:52:05;96053.53;;;13.25;65.77
77631;BME280;66798;47.370;8.552;2023-04-24T06:54:32;96049.19;;;12.79;64.29
77631;BME280;66798;47.370;8.552;2023-04-24T06:56:58;96054.59;;;14.99;60.75
77631;BME280;66798;47.370;8.552;2023-04-24T06:59:24;96046.28;;;14.74;56.84
77631;BME280;66798;47.370;8.552;2023-04-24T07:01:50;96046.94;;;13.50;60.76
77631;BME280;66798;47.370;8.552;2023-04-24T07:04:16;96049.22;;;15.65;57.15
77631;BME280;66798;47.370;8.552;2023-04-24T07:06:42;96056.72;;;14.79;57.61
77631;BME280;66798;47.370;8.552;2023-04-24T07:09:08;96052.13;;;14.00;59.20
77631;BME280;66798;47.370;8.552;2023-04-24T07:11:35;96061.38;;;12.61;64.86
77631;BME280;66798;47.370;8.552;2023-04-24T07:14:00;96059.06;;;12.59;64.80
77631;BME280;66798;47.370;8.552;2023-04-24T07:16:26;96059.78;;;12.32;65.15
77631;BME280;66798;47.370;8.552;2023-04-24T07:18:52;96060.78;;;12.36;64.46
77631;BME280;66798;47.370;8.552;2023-04-24T07:21:17;96066.56;;;12.05;65.64
77631;BME280;66798;47.370;8.552;2023-04-24T07:23:43;96064.19;;;11.71;66.27
77631;BME280;66798;47.370;8.552;2023-04-24T07:26:08;96056.84;;;11.87;66.70
77631;BME280;66798;47.370;8.552;2023-04-24T07:28:34;96058.25;;;11.79;66.70
77631;BME280;66798;47.370;8.552;2023-04-24T07:30:59;96062.84;;;11.55;67.29
77631;BME280;66798;47.370;8.552;2023-04-24T07:33:26;96076.09;;;12.34;65.10
77631;BME280;66798;47.370;8.552;2023-04-24T07:35:52;96084.97;;;13.63;59.59
77631;BME280;66798;47.370;8.552;2023-04-24T07:38:17;96086.34;;;13.60;60.03
77631;BME280;66798;47.370;8.552;2023-04-24T07:40:46;96091.28;;;13.25;60.42
77631;BME280;66798;47.370;8.552;2023-04-24T07:43:12;96091.88;;;13.36;59.61
77631;BME280;66798;47.370;8.552;2023-04-24T07:45:37;96089.44;;;13.12;60.59
77631;BME280;66798;47.370;8.552;2023-04-24T07:48:04;96090.13;;;12.76;63.58
77631;BME280;66798;47.370;8.552;2023-04-24T07:50:30;96090.09;;;13.81;60.06
77631;BME280;66798;47.370;8.552;2023-04-24T07:52:56;96085.56;;;13.82;59.29
77631;BME280;66798;47.370;8.552;2023-04-24T07:55:21;96089.44;;;14.21;55.68
77631;BME280;66798;47.370;8.552;2023-04-24T07:57:46;96100.91;;;14.39;54.97
77631;BME280;66798;47.370;8.552;2023-04-24T08:00:12;96085.41;;;14.01;56.99
77631;BME280;66798;47.370;8.552;2023-04-24T08:02:38;96096.09;;;13.96;57.29
77631;BME280;66798;47.370;8.552;2023-04-24T08:05:04;96108.63;;;13.68;57.09
77631;BME280;66798;47.370;8.552;2023-04-24T08:07:30;96149.63;;;12.22;59.02
77631;BME280;66798;47.370;8.552;2023-04-24T08:09:56;96167.25;;;10.39;64.23
77631;BME280;66798;47.370;8.552;2023-04-24T08:12:21;96162.72;;;9.71;66.63
77631;BME280;66798;47.370;8.552;2023-04-24T08:14:47;96161.25;;;9.49;67.21
77631;BME280;66798;47.370;8.552;2023-04-24T08:17:12;96182.44;;;8.93;70.74
77631;BME280;66798;47.370;8.552;2023-04-24T08:19:40;96191.13;;;8.37;74.52
77631;BME280;66798;47.370;8.552;2023-04-24T08:22:09;96177.22;;;8.06;74.37
77631;BME280;66798;47.370;8.552;2023-04-24T08:24:35;96191.34;;;7.90;77.04
77631;BME280;66798;47.370;8.552;2023-04-24T08:27:00;96190.50;;;7.84;77.05
77631;BME280;66798;47.370;8.552;2023-04-24T08:29:26;96190.56;;;8.04;77.15
77631;BME280;66798;47.370;8.552;2023-04-24T08:31:51;96196.59;;;8.10;76.82
77631;BME280;66798;47.370;8.552;2023-04-24T08:34:19;96192.41;;;8.04;77.91
77631;BME280;66798;47.370;8.552;2023-04-24T08:36:45;96196.34;;;8.17;79.05
77631;BME280;66798;47.370;8.552;2023-04-24T08:39:10;96208.19;;;8.45;77.71
77631;BME280;66798;47.370;8.552;2023-04-24T08:41:37;96208.97;;;8.71;76.20
77631;BME280;66798;47.370;8.552;2023-04-24T08:44:03;96210.53;;;8.77;76.71
77631;BME280;66798;47.370;8.552;2023-04-24T08:46:30;96205.56;;;8.70;76.93
77631;BME280;66798;47.370;8.552;2023-04-24T08:48:56;96197.28;;;9.33;74.01
77631;BME280;66798;47.370;8.552;2023-04-24T08:51:22;96209.47;;;9.69;75.59
77631;BME280;66798;47.370;8.552;2023-04-24T08:53:49;96210.94;;;9.90;72.56
77631;BME280;66798;47.370;8.552;2023-04-24T08:56:16;96204.28;;;10.03;70.48
77631;BME280;66798;47.370;8.552;2023-04-24T08:58:43;96215.38;;;9.95;72.00
77631;BME280;66798;47.370;8.552;2023-04-24T09:01:09;96218.81;;;9.90;70.96
77631;BME280;66798;47.370;8.552;2023-04-24T09:03:35;96217.03;;;10.20;71.17
77631;BME280;66798;47.370;8.552;2023-04-24T09:06:02;96223.72;;;10.07;69.89
77631;BME280;66798;47.370;8.552;2023-04-24T09:08:28;96222.81;;;10.22;69.87
77631;BME280;66798;47.370;8.552;2023-04-24T09:10:53;96215.19;;;10.26;67.61
77631;BME280;66798;47.370;8.552;2023-04-24T09:13:19;96210.34;;;10.77;66.88
77631;BME280;66798;47.370;8.552;2023-04-24T09:15:45;96213.59;;;11.65;63.75
77631;BME280;66798;47.370;8.552;2023-04-24T09:18:10;96202.66;;;12.53;59.89
77631;BME280;66798;47.370;8.552;2023-04-24T09:21:17;96210.16;;;12.79;58.08
77631;BME280;66798;47.370;8.552;2023-04-24T09:23:41;96208.78;;;12.16;59.35
77631;BME280;66798;47.370;8.552;2023-04-24T09:26:09;96217.75;;;11.72;60.82
77631;BME280;66798;47.370;8.552;2023-04-24T09:28:37;96218.34;;;11.44;62.93
77631;BME280;66798;47.370;8.552;2023-04-24T09:31:08;96221.34;;;11.81;62.65
77631;BME280;66798;47.370;8.552;2023-04-24T09:33:35;96211.09;;;11.55;61.72
77631;BME280;66798;47.370;8.552;2023-04-24T09:36:01;96211.72;;;12.66;59.83
77631;BME280;66798;47.370;8.552;2023-04-24T09:38:36;96223.22;;;12.70;59.79
77631;BME280;66798;47.370;8.552;2023-04-24T09:41:04;96208.81;;;11.92;60.01
77631;BME280;66798;47.370;8.552;2023-04-24T09:43:30;96227.84;;;12.07;59.85
77631;BME280;66798;47.370;8.552;2023-04-24T09:45:57;96227.13;;;11.11;63.88
77631;BME280;66798;47.370;8.552;2023-04-24T09:48:35;96226.84;;;11.12;64.12
77631;BME280;66798;47.370;8.552;2023-04-24T09:51:03;96218.84;;;11.71;61.88
77631;BME280;66798;47.370;8.552;2023-04-24T09:53:30;96221.84;;;14.02;56.79
77631;BME280;66798;47.370;8.552;2023-04-24T09:55:56;96219.56;;;15.22;51.65
77631;BME280;66798;47.370;8.552;2023-04-24T09:58:28;96217.75;;;16.58;47.84
77631;BME280;66798;47.370;8.552;2023-04-24T10:00:55;96219.03;;;15.51;47.26
77631;BME280;66798;47.370;8.552;2023-04-24T10:03:25;96207.00;;;16.20;45.75
77631;BME280;66798;47.370;8.552;2023-04-24T10:05:52;96200.59;;;16.21;46.79
77631;BME280;66798;47.370;8.552;2023-04-24T10:08:19;96219.91;;;17.00;45.89
77631;BME280;66798;47.370;8.552;2023-04-24T10:10:46;96210.34;;;15.68;45.98
77631;BME280;66798;47.370;8.552;2023-04-24T10:13:13;96211.38;;;16.85;43.80
77631;BME280;66798;47.370;8.552;2023-04-24T10:15:40;96213.09;;;16.20;45.60
77631;BME280;66798;47.370;8.552;2023-04-24T10:18:07;96209.91;;;15.26;46.75
77631;BME280;66798;47.370;8.552;2023-04-24T10:20:36;96203.47;;;15.67;46.93
77631;BME280;66798;47.370;8.552;2023-04-24T10:23:03;96209.13;;;17.05;44.08
77631;BME280;66798;47.370;8.552;2023-04-24T10:25:31;96214.91;;;17.45;41.56
77631;BME280;66798;47.370;8.552;2023-04-24T10:27:58;96219.91;;;15.78;46.48
77631;BME280;66798;47.370;8.552;2023-04-24T10:30:30;96213.06;;;15.85;45.37
77631;BME280;66798;47.370;8.552;2023-04-24T10:32:56;96214.03;;;16.16;45.48
77631;BME280;66798;47.370;8.552;2023-04-24T10:35:22;96227.25;;;17.03;43.53
77631;BME280;66798;47.370;8.552;2023-04-24T10:38:12;96220.44;;;16.41;44.06
77631;BME280;66798;47.370;8.552;2023-04-24T10:40:38;96221.81;;;15.95;45.21
77631;BME280;66798;47.370;8.552;2023-04-24T10:43:08;96216.25;;;15.65;43.20
77631;BME280;66798;47.370;8.552;2023-04-24T10:45:38;96216.84;;;15.13;44.56
77631;BME280;66798;47.370;8.552;2023-04-24T10:48:07;96206.34;;;15.39;44.27
77631;BME280;66798;47.370;8.552;2023-04-24T10:53:14;96213.28;;;15.18;44.24
77631;BME280;66798;47.370;8.552;2023-04-24T10:55:48;96217.09;;;14.49;45.03
77631;BME280;66798;47.370;8.552;2023-04-24T10:58:15;96216.13;;;14.90;45.51
77631;BME280;66798;47.370;8.552;2023-04-24T11:00:43;96221.84;;;14.83;45.86
77631;BME280;66798;47.370;8.552;2023-04-24T11:03:25;96217.41;;;15.73;43.73
77631;BME280;66798;47.370;8.552;2023-04-24T11:08:38;96221.44;;;14.90;44.44
77631;BME280;66798;47.370;8.552;2023-04-24T11:11:13;96219.47;;;14.37;45.24
77631;BME280;66798;47.370;8.552;2023-04-24T11:16:31;96219.97;;;15.15;43.93
77631;BME280;66798;47.370;8.552;2023-04-24T11:21:43;96224.84;;;14.45;44.81
77631;BME280;66798;47.370;8.552;2023-04-24T11:24:28;96235.59;;;13.90;46.48
77631;BME280;66798;47.370;8.552;2023-04-24T11:27:07;96236.06;;;13.92;46.08
77631;BME280;66798;47.370;8.552;2023-04-24T11:34:56;96237.47;;;16.57;41.86
77631;BME280;66798;47.370;8.552;2023-04-24T11:37:23;96242.06;;;15.33;44.07
77631;BME280;66798;47.370;8.552;2023-04-24T11:39:54;96244.56;;;14.39;46.06
77631;BME280;66798;47.370;8.552;2023-04-24T11:42:21;96231.22;;;16.79;42.78
77631;BME280;66798;47.370;8.552;2023-04-24T11:44:47;96232.78;;;17.36;41.67
77631;BME280;66798;47.370;8.552;2023-04-24T11:47:14;96245.91;;;16.85;41.48
77631;BME280;66798;47.370;8.552;2023-04-24T11:49:39;96251.69;;;16.79;41.26
77631;BME280;66798;47.370;8.552;2023-04-24T11:52:05;96254.88;;;15.40;44.51
77631;BME280;66798;47.370;8.552;2023-04-24T11:54:31;96250.44;;;14.73;47.63
77631;BME280;66798;47.370;8.552;2023-04-24T11:56:57;96245.25;;;14.90;45.70
77631;BME280;66798;47.370;8.552;2023-04-24T11:59:22;96249.66;;;15.26;47.75
77631;BME280;66798;47.370;8.552;2023-04-24T12:01:49;96239.78;;;16.32;43.21
77631;BME280;66798;47.370;8.552;2023-04-24T12:04:16;96238.38;;;16.61;41.56
77631;BME280;66798;47.370;8.552;2023-04-24T12:07:03;96242.06;;;15.73;43.70
77631;BME280;66798;47.370;8.552;2023-04-24T12:09:56;96238.34;;;15.83;43.39
77631;BME280;66798;47.370;8.552;2023-04-24T12:12:28;96236.91;;;15.05;44.38
77631;BME280;66798;47.370;8.552;2023-04-24T12:14:55;96241.31;;;14.06;47.21
77631;BME280;66798;47.370;8.552;2023-04-24T12:17:29;96232.69;;;14.37;47.08
77631;BME280;66798;47.370;8.552;2023-04-24T12:20:06;96235.06;;;15.06;44.52
77631;BME280;66798;47.370;8.552;2023-04-24T12:22:46;96235.94;;;14.93;44.81
77631;BME280;66798;47.370;8.552;2023-04-24T12:25:14;96239.19;;;14.67;46.09
77631;BME280;66798;47.370;8.552;2023-04-24T12:27:40;96250.25;;;15.23;44.47
77631;BME280;66798;47.370;8.552;2023-04-24T12:30:10;96252.34;;;14.58;45.40
77631;BME280;66798;47.370;8.552;2023-04-24T12:32:44;96259.75;;;14.11;45.44
77631;BME280;66798;47.370;8.552;2023-04-24T12:35:10;96261.03;;;12.98;52.77
77631;BME280;66798;47.370;8.552;2023-04-24T12:37:36;96250.19;;;12.67;54.10
77631;BME280;66798;47.370;8.552;2023-04-24T12:40:10;96252.25;;;13.03;60.86
77631;BME280;66798;47.370;8.552;2023-04-24T12:42:42;96258.97;;;13.42;55.06
77631;BME280;66798;47.370;8.552;2023-04-24T12:45:08;96255.09;;;13.67;56.62
77631;BME280;66798;47.370;8.552;2023-04-24T12:47:34;96242.38;;;13.69;51.16
77631;BME280;66798;47.370;8.552;2023-04-24T12:50:01;96233.03;;;13.85;49.69
77631;BME280;66798;47.370;8.552;2023-04-24T12:52:28;96234.72;;;14.54;50.35
77631;BME280;66798;47.370;8.552;2023-04-24T12:54:56;96225.19;;;15.29;48.50
77631;BME280;66798;47.370;8.552;2023-04-24T12:57:23;96228.97;;;15.77;45.56
77631;BME280;66798;47.370;8.552;2023-04-24T12:59:49;96221.00;;;15.28;43.63
77631;BME280;66798;47.370;8.552;2023-04-24T13:02:14;96222.41;;;15.34;43.74
77631;BME280;66798;47.370;8.552;2023-04-24T13:04:44;96216.75;;;15.67;44.06
77631;BME280;66798;47.370;8.552;2023-04-24T13:07:10;96216.66;;;15.98;42.61
77631;BME280;66798;47.370;8.552;2023-04-24T13:09:36;96218.41;;;16.20;42.54
77631;BME280;66798;47.370;8.552;2023-04-24T13:12:01;96215.44;;;16.22;41.81
77631;BME280;66798;47.370;8.552;2023-04-24T13:14:27;96214.19;;;16.28;41.61
77631;BME280;66798;47.370;8.552;2023-04-24T13:16:52;96219.81;;;16.09;42.24
77631;BME280;66798;47.370;8.552;2023-04-24T13:19:18;96221.50;;;15.87;42.89
77631;BME280;66798;47.370;8.552;2023-04-24T13:21:43;96225.31;;;15.64;43.59